Time;durP1;ratioP1;P1;durP2;ratioP2;P2;SDS_P1;SDS_P2;PMS_P1;PMS_P2;Temp;Humidity;BMP_temperature;BMP_pressure;BME280_temperature;BME280_humidity;BME280_pressure;Samples;Min_cycle;Max_cycle;Signal;HPM_P1;HPM_P2
2023/01/26 00:00:33;;;;;;;105.90;29.13;;;;;;;-2.61;100.00;102409.03;5018798;28;20042;-88
2023/01/26 00:03:01;;;;;;;117.83;31.33;;;;;;;-2.61;100.00;102415.22;5019400;28;20485;-87
2023/01/26 00:05:29;;;;;;;98.85;26.77;;;;;;;-2.61;100.00;102415.22;5019295;28;20021;-88
2023/01/26 00:07:55;;;;;;;99.28;28.75;;;;;;;-2.65;100.00;102406.56;5019176;28;20117;-91
2023/01/26 00:10:30;;;;;;;;;;;;;;;;;;;;;
2023/01/26 00:16:32;;;;;;;103.57;27.92;;;;;;;-2.62;100.00;102392.25;4981552;28;20393;-88
2023/01/26 00:18:58;;;;;;;77.07;20.95;;;;;;;-2.59;100.00;102392.06;5001685;28;20034;-88
2023/01/26 00:21:24;;;;;;;106.50;28.10;;;;;;;-2.62;100.00;102378.97;5017841;28;20406;-88
2023/01/26 00:27:16;;;;;;;101.10;27.10;;;;;;;-2.64;100.00;102378.22;5036244;28;20080;-88
2023/01/26 00:29:44;;;;;;;96.47;27.17;;;;;;;-2.63;100.00;102374.59;5035624;28;20292;-88
2023/01/26 00:32:13;;;;;;;93.80;25.65;;;;;;;-2.62;100.00;102378.97;5018360;28;20076;-87
2023/01/26 00:34:38;;;;;;;90.70;25.58;;;;;;;-2.59;100.00;102378.78;5018299;28;20032;-88
2023/01/26 00:37:04;;;;;;;86.93;24.77;;;;;;;-2.64;100.00;102375.56;5035665;28;20462;-87
2023/01/26 00:39:30;;;;;;;86.60;24.65;;;;;;;-2.62;100.00;102368.31;5017870;28;20033;-88
2023/01/26 00:42:12;;;;;;;92.47;26.75;;;;;;;-2.60;100.00;102370.91;5017569;28;20021;-87
2023/01/26 00:45:01;;;;;;;93.43;27.25;;;;;;;-2.58;100.00;102372.53;5018187;28;20044;-87
2023/01/26 00:47:29;;;;;;;89.90;23.98;;;;;;;-2.58;100.00;102359.22;5003191;28;20033;-88
2023/01/26 00:50:03;;;;;;;92.20;25.53;;;;;;;-2.55;100.00;102353.72;5018083;28;20037;-88
2023/01/26 00:52:30;;;;;;;94.07;26.02;;;;;;;-2.53;100.00;102357.13;5002452;28;20037;-88
2023/01/26 00:55:04;;;;;;;101.63;27.13;;;;;;;-2.53;100.00;102349.16;5018333;28;20030;-88
2023/01/26 00:57:32;;;;;;;87.85;25.42;;;;;;;-2.53;100.00;102343.00;5002338;28;20049;-87
2023/01/26 00:59:58;;;;;;;94.70;25.83;;;;;;;-2.54;100.00;102335.97;5018058;28;20034;-87
2023/01/26 01:02:39;;;;;;;91.97;26.90;;;;;;;-2.53;100.00;102338.53;5017157;28;20029;-87
2023/01/26 01:05:05;;;;;;;92.57;26.38;;;;;;;-2.53;100.00;102335.88;5017301;28;20084;-87
2023/01/26 01:07:33;;;;;;;93.57;26.40;;;;;;;-2.50;100.00;102340.16;5017251;28;20068;-88
2023/01/26 01:10:01;;;;;;;92.13;26.00;;;;;;;-2.47;100.00;102342.63;5017192;28;20029;-87
2023/01/26 01:12:35;;;;;;;93.35;25.48;;;;;;;-2.45;100.00;102338.09;5001024;28;20076;-88
2023/01/26 01:15:08;;;;;;;90.72;25.48;;;;;;;-2.47;100.00;102330.22;5035544;28;20029;-88
2023/01/26 01:17:36;;;;;;;79.47;22.37;;;;;;;-2.50;100.00;102326.88;5016925;28;20037;-88
2023/01/26 01:23:07;;;;;;;86.88;25.40;;;;;;;-2.49;100.00;102344.53;4993782;28;20128;-87
2023/01/26 01:25:33;;;;;;;85.03;24.80;;;;;;;-2.48;100.00;102343.56;4997075;28;20096;-87
2023/01/26 01:28:02;;;;;;;90.60;26.17;;;;;;;-2.48;100.00;102331.16;5034722;28;20061;-88
2023/01/26 01:30:36;;;;;;;91.35;25.40;;;;;;;-2.45;100.00;102332.78;5017048;28;20032;-88
2023/01/26 01:33:02;;;;;;;93.43;26.23;;;;;;;-2.45;100.00;102332.78;5016744;28;20026;-88
2023/01/26 01:35:38;;;;;;;88.97;25.07;;;;;;;-2.41;100.00;102331.59;5016896;28;20032;-88
2023/01/26 01:38:03;;;;;;;93.30;25.90;;;;;;;-2.42;100.00;102326.38;5017103;28;20363;-89
2023/01/26 01:40:29;;;;;;;88.07;25.10;;;;;;;-2.42;100.00;102331.69;5017294;28;20029;-87
2023/01/26 01:42:57;;;;;;;91.78;25.05;;;;;;;-2.43;100.00;102338.84;5017330;28;20068;-88
2023/01/26 01:45:26;;;;;;;79.30;22.90;;;;;;;-2.36;100.00;102341.97;5016468;28;20037;-87
2023/01/26 01:48:04;;;;;;;81.07;23.80;;;;;;;-2.37;100.00;102342.94;5016347;28;20276;-87
2023/01/26 01:50:36;;;;;;;85.03;23.38;;;;;;;-2.36;100.00;102339.28;5016427;28;20056;-87
2023/01/26 01:53:07;;;;;;;85.72;24.75;;;;;;;-2.37;100.00;102332.28;5016277;28;20068;-87
2023/01/26 01:55:33;;;;;;;94.13;25.73;;;;;;;-2.37;100.00;102337.59;5001507;28;20037;-87
2023/01/26 01:58:03;;;;;;;87.90;24.57;;;;;;;-2.36;100.00;102339.28;5016106;28;20029;-87
2023/01/26 02:00:31;;;;;;;79.93;25.08;;;;;;;-2.33;100.00;102344.44;4999910;28;20319;-87
2023/01/26 02:03:10;;;;;;;88.88;26.00;;;;;;;-2.34;100.00;102327.63;5016438;28;20473;-87
2023/01/26 02:06:02;;;;;;;83.63;24.90;;;;;;;-2.30;100.00;102328.31;5016293;28;20033;-87
2023/01/26 02:08:54;;;;;;;89.70;25.50;;;;;;;-2.32;100.00;102328.41;5034886;28;20022;-88
2023/01/26 02:11:33;;;;;;;91.60;24.97;;;;;;;-2.29;100.00;102330.00;5034389;28;20486;-87
2023/01/26 02:14:04;;;;;;;77.38;22.45;;;;;;;-2.27;100.00;102329.91;5016529;28;20283;-87
2023/01/26 02:16:34;;;;;;;94.25;25.73;;;;;;;-2.23;100.00;102326.09;5000461;28;20067;-87
2023/01/26 02:18:59;;;;;;;93.05;25.73;;;;;;;-2.25;100.00;102306.75;5034202;28;20025;-87
2023/01/26 02:21:30;;;;;;;93.00;24.77;;;;;;;-2.19;100.00;102314.34;5016221;28;20057;-88
2023/01/26 02:24:32;;;;;;;80.90;23.85;;;;;;;-2.16;100.00;102306.16;5016229;28;20030;-87
2023/01/26 02:27:01;;;;;;;77.43;21.88;;;;;;;-2.16;100.00;102300.84;5016836;28;20021;-87
2023/01/26 02:29:27;;;;;;;84.25;24.20;;;;;;;-2.10;100.00;102303.13;5033364;28;20025;-87
2023/01/26 02:31:56;;;;;;;90.40;24.20;;;;;;;-2.10;100.00;102308.44;5033708;28;20034;-87
2023/01/26 02:34:27;;;;;;;87.57;23.88;;;;;;;-2.10;100.00;102300.47;5016237;28;20039;-87
2023/01/26 02:37:07;;;;;;;83.07;23.17;;;;;;;-2.11;100.00;102304.09;5034012;28;20029;-87
2023/01/26 02:39:38;;;;;;;81.82;23.38;;;;;;;-2.07;100.00;102304.72;5016240;28;20052;-87
2023/01/26 02:44:51;;;;;;;87.33;23.87;;;;;;;-2.16;100.00;102299.03;5033714;28;20067;-87
2023/01/26 02:47:22;;;;;;;81.88;23.45;;;;;;;-2.13;100.00;102300.66;5033320;28;20029;-87
2023/01/26 02:49:51;;;;;;;78.22;21.70;;;;;;;-2.13;100.00;102300.66;5033549;28;20036;-87
2023/01/26 02:52:21;;;;;;;80.78;22.60;;;;;;;-2.12;100.00;102289.06;5015804;28;20037;-87
2023/01/26 02:57:33;;;;;;;85.93;22.83;;;;;;;-2.02;100.00;102294.63;5034088;28;20044;-87
2023/01/26 03:00:01;;;;;;;81.03;22.23;;;;;;;-2.00;100.00;102288.28;5033831;28;20030;-87
2023/01/26 03:02:30;;;;;;;80.32;22.75;;;;;;;-2.00;100.00;102284.78;5033633;28;20040;-87
2023/01/26 03:04:56;;;;;;;78.13;21.60;;;;;;;-1.97;100.00;102284.56;5017287;28;20524;-87
2023/01/26 03:07:22;;;;;;;81.67;23.10;;;;;;;-1.95;100.00;102280.00;5037380;28;20025;-87
2023/01/26 03:09:53;;;;;;;72.30;21.63;;;;;;;-1.94;100.00;102281.72;5019250;28;20045;-87
2023/01/26 03:12:25;;;;;;;85.00;23.20;;;;;;;-1.95;100.00;102272.91;5019272;28;20033;-87
2023/01/26 03:17:37;;;;;;;72.03;21.00;;;;;;;-1.94;100.00;102282.56;5037629;28;20047;-87
2023/01/26 03:28:24;;;;;;;70.50;20.63;;;;;;;-1.88;100.00;102285.78;5037352;28;20037;-87
2023/01/26 03:30:54;;;;;;;78.80;22.38;;;;;;;-1.86;100.00;102282.09;5018872;28;20075;-87
2023/01/26 03:33:23;;;;;;;77.75;21.50;;;;;;;-1.83;100.00;102278.34;5019326;28;20032;-87
2023/01/26 03:35:52;;;;;;;75.27;21.83;;;;;;;-1.83;100.00;102281.91;5018813;28;20037;-87
2023/01/26 03:38:20;;;;;;;70.90;20.88;;;;;;;-1.85;100.00;102275.78;5019226;28;20025;-88
2023/01/26 03:57:30;;;;;;;71.57;20.00;;;;;;;-1.66;100.00;102278.13;5037049;28;20539;-87
2023/01/26 03:59:56;;;;;;;76.10;21.00;;;;;;;-1.67;100.00;102268.44;5002162;28;20049;-87
2023/01/26 04:08:25;;;;;;;70.47;19.33;;;;;;;-1.64;100.00;102265.59;5036837;28;20044;-87
2023/01/26 04:10:57;;;;;;;68.47;19.73;;;;;;;-1.60;100.00;102268.88;5019648;28;20108;-87
2023/01/26 04:22:00;;;;;;;71.60;18.58;;;;;;;-1.57;100.00;102271.34;5036116;28;20064;-87
2023/01/26 04:24:56;;;;;;;70.10;18.40;;;;;;;-1.56;100.00;102272.22;4975185;28;20042;-87
2023/01/26 04:27:27;;;;;;;63.55;17.63;;;;;;;-1.60;100.00;102269.72;5014613;28;20045;-87
2023/01/26 04:33:19;;;;;;;58.22;15.02;;;;;;;-1.63;100.00;102264.59;5035831;28;20125;-87
2023/01/26 04:35:45;;;;;;;49.30;15.38;;;;;;;-1.64;100.00;102267.38;5035677;28;20037;-87
2023/01/26 04:38:13;;;;;;;58.77;15.47;;;;;;;-1.63;100.00;102269.09;5035590;28;20036;-88
2023/01/26 04:40:52;;;;;;;61.50;16.55;;;;;;;-1.63;100.00;102271.75;5017175;28;20034;-88
2023/01/26 04:43:23;;;;;;;55.73;15.03;;;;;;;-1.61;100.00;102273.38;5017616;28;20432;-87
2023/01/26 04:46:06;;;;;;;64.20;16.05;;;;;;;-1.60;100.00;102268.88;5035672;28;20056;-88
2023/01/26 04:48:42;;;;;;;65.90;15.82;;;;;;;-1.61;100.00;102267.16;5018186;28;20112;-87
2023/01/26 04:51:27;;;;;;;57.55;14.40;;;;;;;-1.57;100.00;102268.69;5017534;28;20112;-88
2023/01/26 04:53:53;;;;;;;55.55;15.43;;;;;;;-1.58;100.00;102261.63;5017740;28;20045;-87
2023/01/26 04:56:23;;;;;;;58.83;15.20;;;;;;;-1.55;100.00;102271.25;5017568;28;20083;-86
2023/01/26 04:58:50;;;;;;;56.88;14.57;;;;;;;-1.52;100.00;102263.03;5017394;28;20037;-87
2023/01/26 05:01:15;;;;;;;51.87;13.87;;;;;;;-1.48;100.00;102262.75;5017462;28;20035;-87
2023/01/26 05:03:44;;;;;;;49.35;14.00;;;;;;;-1.40;100.00;102275.56;5016897;28;20037;-87
2023/01/26 05:06:09;;;;;;;50.35;13.73;;;;;;;-1.41;100.00;102261.38;5017155;28;20033;-87
2023/01/26 05:08:36;;;;;;;55.97;16.37;;;;;;;-1.38;100.00;102272.81;5017373;28;20536;-87
2023/01/26 05:11:01;;;;;;;50.58;14.18;;;;;;;-1.37;100.00;102269.16;5017277;28;20025;-87
2023/01/26 05:13:34;;;;;;;56.63;13.77;;;;;;;-1.38;100.00;102263.00;5017363;28;20056;-87
2023/01/26 05:16:01;;;;;;;55.30;14.43;;;;;;;-1.35;100.00;102264.59;5017865;28;20533;-87
2023/01/26 05:18:28;;;;;;;57.25;15.52;;;;;;;-1.36;100.00;102263.72;5018179;28;20045;-87
2023/01/26 05:20:54;;;;;;;54.50;15.27;;;;;;;-1.31;100.00;102264.28;5033955;28;20555;-87
2023/01/26 05:23:19;;;;;;;49.38;13.82;;;;;;;-1.30;100.00;102263.34;5016880;28;20078;-86
2023/01/26 05:25:50;;;;;;;49.60;14.07;;;;;;;-1.29;100.00;102265.03;5016855;28;20116;-87
2023/01/26 05:28:18;;;;;;;45.45;12.55;;;;;;;-1.24;100.00;102268.25;5016408;28;20102;-87
2023/01/26 05:30:50;;;;;;;46.95;13.23;;;;;;;-1.24;100.00;102270.91;5000735;28;20036;-87
2023/01/26 05:33:21;;;;;;;52.20;13.40;;;;;;;-1.23;100.00;102269.09;5017640;28;20471;-87
2023/01/26 05:35:52;;;;;;;47.50;13.98;;;;;;;-1.20;100.00;102271.56;5017941;28;20291;-88
2023/01/26 05:38:27;;;;;;;45.95;13.52;;;;;;;-1.21;100.00;102266.31;5034347;28;20033;-88
2023/01/26 05:40:55;;;;;;;45.20;13.07;;;;;;;-1.21;100.00;102271.66;5016702;28;20028;-88
2023/01/26 05:43:29;;;;;;;48.85;13.05;;;;;;;-1.21;100.00;102272.53;5016948;28;20082;-88
2023/01/26 05:46:14;;;;;;;45.37;12.27;;;;;;;-1.20;100.00;102271.56;4960371;28;20047;-88
2023/01/26 05:48:40;;;;;;;49.85;12.95;;;;;;;-1.20;100.00;102268.03;5014792;28;20280;-89
2023/01/26 05:51:05;;;;;;;47.13;12.13;;;;;;;-1.16;100.00;102277.53;5018167;28;20036;-88
2023/01/26 05:56:53;;;;;;;39.78;12.73;;;;;;;-1.11;100.00;102270.06;5034209;28;20615;-87
2023/01/26 05:59:21;;;;;;;41.90;11.97;;;;;;;-1.08;100.00;102280.53;5001054;28;20041;-87
2023/01/26 06:01:49;;;;;;;45.50;12.73;;;;;;;-1.08;100.00;102277.84;5017323;28;20029;-87
2023/01/26 06:04:14;;;;;;;44.15;12.23;;;;;;;-1.10;100.00;102274.47;5000343;28;20099;-87
2023/01/26 06:06:40;;;;;;;46.03;11.93;;;;;;;-1.12;100.00;102279.00;5015963;28;20473;-87
2023/01/26 06:09:08;;;;;;;38.93;12.20;;;;;;;-1.15;100.00;102281.88;5016801;28;20060;-87
2023/01/26 06:11:48;;;;;;;44.85;12.43;;;;;;;-1.10;100.00;102283.28;5034014;28;20025;-87
2023/01/26 06:17:40;;;;;;;45.72;12.65;;;;;;;-1.04;100.00;102297.16;5033970;28;20115;-86
2023/01/26 06:23:32;;;;;;;41.50;11.95;;;;;;;-1.07;100.00;102296.41;5032114;28;20302;-87
2023/01/26 06:26:01;;;;;;;43.97;11.38;;;;;;;-1.05;100.00;102288.31;5016284;28;20099;-86
2023/01/26 06:28:28;;;;;;;48.30;12.35;;;;;;;-1.05;100.00;102277.66;5016228;28;20029;-85
2023/01/26 06:31:05;;;;;;;44.85;12.18;;;;;;;-1.06;100.00;102279.47;5016256;28;20029;-88
2023/01/26 06:33:34;;;;;;;42.20;11.77;;;;;;;-1.04;100.00;102286.50;5015779;28;20021;-86
2023/01/26 06:36:04;;;;;;;41.30;12.02;;;;;;;-1.08;100.00;102276.06;5015894;28;20280;-86
2023/01/26 06:38:29;;;;;;;44.28;11.85;;;;;;;-1.05;100.00;102293.63;5016060;28;20045;-87
2023/01/26 06:41:01;;;;;;;40.15;10.82;;;;;;;-1.08;100.00;102286.72;5015660;28;20025;-86
2023/01/26 06:43:32;;;;;;;41.58;11.40;;;;;;;-1.13;100.00;102290.66;5015439;28;20036;-86
2023/01/26 06:46:02;;;;;;;39.33;10.83;;;;;;;-1.13;100.00;102294.16;5016633;28;20518;-87
2023/01/26 06:48:33;;;;;;;42.97;11.52;;;;;;;-1.12;100.00;102293.22;5016021;28;20030;-86
2023/01/26 06:51:45;;;;;;;40.60;11.82;;;;;;;-1.06;100.00;102295.44;5033727;28;20386;-86
2023/01/26 06:54:15;;;;;;;36.28;10.48;;;;;;;-1.02;100.00;102300.56;5033355;28;20030;-86
2023/01/26 06:56:41;;;;;;;43.97;11.85;;;;;;;-1.02;100.00;102303.22;5033499;28;20037;-87
2023/01/26 06:59:08;;;;;;;44.83;11.57;;;;;;;-1.04;100.00;102299.84;5015553;28;20359;-86
2023/01/26 07:01:47;;;;;;;42.45;12.27;;;;;;;-1.06;100.00;102300.78;5015418;28;20124;-87
2023/01/26 07:04:17;;;;;;;42.40;11.32;;;;;;;-1.04;100.00;102303.34;5016124;28;20378;-86
2023/01/26 07:06:45;;;;;;;42.97;11.32;;;;;;;-1.10;100.00;102298.44;5015609;28;20033;-86
2023/01/26 07:09:10;;;;;;;37.13;10.87;;;;;;;-1.09;100.00;102301.00;5015623;28;20030;-86
2023/01/26 07:11:41;;;;;;;41.67;10.95;;;;;;;-1.08;100.00;102299.16;5032999;28;20073;-88
2023/01/26 07:14:12;;;;;;;38.17;10.95;;;;;;;-1.10;100.00;102296.59;5015095;28;20091;-87
2023/01/26 07:16:40;;;;;;;42.80;12.47;;;;;;;-1.06;100.00;102306.09;5015257;28;20030;-87
2023/01/26 07:19:06;;;;;;;43.17;11.27;;;;;;;-1.04;100.00;102313.16;5015318;28;20049;-87
2023/01/26 07:21:34;;;;;;;44.20;12.43;;;;;;;-1.02;100.00;102314.72;5032727;28;20120;-86
2023/01/26 07:24:02;;;;;;;45.83;11.75;;;;;;;-1.04;100.00;102314.00;5015288;28;20057;-86
2023/01/26 07:26:30;;;;;;;39.13;12.02;;;;;;;-1.04;100.00;102311.34;5016412;28;20034;-86
2023/01/26 07:28:56;;;;;;;37.33;11.07;;;;;;;-0.97;100.00;102320.63;5015065;28;20125;-87
2023/01/26 07:31:24;;;;;;;45.63;11.40;;;;;;;-0.99;100.00;102305.69;5015119;28;20116;-86
2023/01/26 07:33:50;;;;;;;40.60;11.57;;;;;;;-0.96;100.00;102309.00;5016312;28;20060;-86
2023/01/26 07:36:19;;;;;;;38.83;10.52;;;;;;;-0.94;100.00;102308.91;5015627;28;20752;-86
2023/01/26 07:38:44;;;;;;;36.63;11.70;;;;;;;-0.91;100.00;102320.19;5015188;28;20033;-87
2023/01/26 07:41:13;;;;;;;42.77;12.17;;;;;;;-0.91;100.00;102317.53;4998922;28;20436;-85
2023/01/26 07:43:40;;;;;;;44.28;11.60;;;;;;;-0.93;100.00;102311.47;4998897;28;20033;-86
2023/01/26 07:46:15;;;;;;;47.22;12.63;;;;;;;-0.94;100.00;102308.91;5016223;28;20033;-86
2023/01/26 07:48:40;;;;;;;45.53;11.95;;;;;;;-0.95;100.00;102317.84;5016314;28;20029;-86
2023/01/26 07:51:08;;;;;;;46.90;11.87;;;;;;;-0.92;100.00;102326.47;5015044;28;20033;-86
2023/01/26 07:53:38;;;;;;;50.58;13.25;;;;;;;-0.91;100.00;102322.88;5018847;28;20544;-87
2023/01/26 07:56:20;;;;;;;42.58;11.40;;;;;;;-0.92;100.00;102320.31;5036289;28;20064;-86
2023/01/26 07:58:54;;;;;;;48.93;11.83;;;;;;;-0.88;100.00;102327.97;5036342;28;20026;-87
2023/01/26 08:01:25;;;;;;;47.60;12.30;;;;;;;-0.86;100.00;102333.22;5018533;28;20037;-90
2023/01/26 08:03:54;;;;;;;46.55;11.95;;;;;;;-0.86;100.00;102337.69;5019048;28;20029;-88
2023/01/26 08:06:24;;;;;;;46.92;12.32;;;;;;;-0.83;100.00;102343.66;5037827;28;20033;-88
2023/01/26 08:08:57;;;;;;;50.65;13.25;;;;;;;-0.82;100.00;102331.22;5001877;28;20037;-87
2023/01/26 08:11:27;;;;;;;48.40;12.40;;;;;;;-0.81;100.00;102331.09;5003534;28;20037;-89
2023/01/26 08:13:57;;;;;;;49.05;13.75;;;;;;;-0.80;100.00;102338.13;5036097;28;20072;-87
2023/01/26 08:16:23;;;;;;;55.67;14.45;;;;;;;-0.83;100.00;102335.66;5036038;28;20041;-88
2023/01/26 08:18:59;;;;;;;44.87;12.67;;;;;;;-0.79;100.00;102342.50;5018274;28;20048;-88
2023/01/26 08:21:24;;;;;;;52.22;13.55;;;;;;;-0.76;100.00;102347.63;5018582;28;20446;-88
2023/01/26 08:24:03;;;;;;;47.97;13.20;;;;;;;-0.75;100.00;102349.34;5018068;28;20049;-88
2023/01/26 08:26:36;;;;;;;47.00;13.13;;;;;;;-0.75;100.00;102341.34;5035943;28;20268;-88
2023/01/26 08:29:02;;;;;;;45.88;12.60;;;;;;;-0.71;100.00;102341.97;5017998;28;20044;-89
2023/01/26 08:31:36;;;;;;;47.83;12.10;;;;;;;-0.63;100.00;102344.97;5017978;28;20029;-87
2023/01/26 08:34:04;;;;;;;50.72;13.85;;;;;;;-0.66;100.00;102342.53;5002336;28;20038;-87
2023/01/26 08:36:29;;;;;;;47.10;12.57;;;;;;;-0.65;100.00;102346.91;5035642;28;20091;-86
2023/01/26 08:38:55;;;;;;;44.67;12.57;;;;;;;-0.60;100.00;102351.91;5035626;28;20034;-87
2023/01/26 08:41:25;;;;;;;51.47;13.32;;;;;;;-0.62;100.00;102346.69;5018397;28;20030;-88
2023/01/26 08:43:51;;;;;;;54.80;14.35;;;;;;;-0.60;100.00;102344.75;5018078;28;20033;-87
2023/01/26 08:46:20;;;;;;;49.92;13.27;;;;;;;-0.55;100.00;102352.44;5018048;28;20040;-87
2023/01/26 08:48:45;;;;;;;48.97;12.50;;;;;;;-0.48;100.00;102358.22;5035892;28;20100;-87
2023/01/26 08:51:11;;;;;;;49.20;12.93;;;;;;;-0.45;100.00;102355.34;5017379;28;20036;-86
2023/01/26 08:53:39;;;;;;;43.57;12.47;;;;;;;-0.40;100.00;102355.84;5017737;28;20030;-86
2023/01/26 08:56:10;;;;;;;50.50;14.52;;;;;;;-0.36;100.00;102357.34;5017857;28;20017;-87
2023/01/26 08:58:38;;;;;;;55.00;14.97;;;;;;;-0.25;100.00;102362.81;5035638;28;20470;-87
2023/01/26 09:01:13;;;;;;;47.63;13.15;;;;;;;-0.22;100.00;102364.41;5017026;28;20292;-88
2023/01/26 09:03:47;;;;;;;56.60;14.35;;;;;;;-0.12;100.00;102368.13;5017103;28;20025;-88
2023/01/26 09:06:14;;;;;;;50.42;13.77;;;;;;;-0.04;100.00;102367.59;5017364;28;20029;-88
2023/01/26 09:08:45;;;;;;;56.25;14.02;;;;;;;0.05;100.00;102361.59;5035225;28;20033;-90
2023/01/26 09:11:11;;;;;;;50.03;13.33;;;;;;;0.11;100.00;102360.31;5035432;28;20033;-88
2023/01/26 09:13:37;;;;;;;53.05;14.25;;;;;;;0.17;100.00;102360.72;5035041;28;20275;-87
2023/01/26 09:16:10;;;;;;;63.55;14.07;;;;;;;0.23;100.00;102356.75;5035032;28;20025;-88
2023/01/26 09:18:36;;;;;;;54.20;14.07;;;;;;;0.30;100.00;102352.69;5035056;28;20049;-89
2023/01/26 09:21:06;;;;;;;51.30;12.70;;;;;;;0.44;100.00;102369.50;5017946;28;20059;-87
2023/01/26 09:23:34;;;;;;;53.90;13.27;;;;;;;0.44;100.00;102359.66;5002363;28;20489;-88
2023/01/26 09:26:01;;;;;;;56.65;14.90;;;;;;;0.50;100.00;102355.72;5017193;28;20037;-88
2023/01/26 09:28:27;;;;;;;56.70;14.10;;;;;;;0.57;100.00;102358.78;5034385;28;20056;-87
2023/01/26 09:30:53;;;;;;;56.73;14.80;;;;;;;0.61;100.00;102350.44;5034650;28;20026;-88
2023/01/26 09:33:21;;;;;;;52.58;14.23;;;;;;;0.64;100.00;102368.91;5017311;28;20037;-89
2023/01/26 09:35:59;;;;;;;62.87;13.83;;;;;;;0.64;100.00;102373.41;5034830;28;20049;-89
2023/01/26 09:38:26;;;;;;;55.10;14.05;;;;;;;0.65;100.00;102359.94;5001526;28;20034;-89
2023/01/26 09:41:10;;;;;;;55.53;14.75;;;;;;;0.57;100.00;102374.81;5017900;28;20454;-88
2023/01/26 09:43:51;;;;;;;54.85;13.88;;;;;;;0.60;100.00;102370.09;5016957;28;20069;-88
2023/01/26 09:46:24;;;;;;;53.58;13.73;;;;;;;0.69;100.00;102376.59;5017101;28;20034;-89
2023/01/26 09:49:11;;;;;;;44.57;13.23;;;;;;;0.70;100.00;102372.94;5016999;28;20458;-88
2023/01/26 09:52:05;;;;;;;50.38;13.65;;;;;;;0.70;100.00;102370.28;5017219;28;20032;-88
2023/01/26 09:55:01;;;;;;;57.75;14.38;;;;;;;0.73;100.00;102374.56;5016633;28;20104;-88
2023/01/26 09:57:40;;;;;;;50.00;13.90;;;;;;;0.72;100.00;102370.16;4996070;28;20412;-88
2023/01/26 10:00:16;;;;;;;51.67;13.32;;;;;;;0.74;100.00;102379.78;5017226;28;20076;-88
2023/01/26 10:02:56;;;;;;;48.10;13.50;;;;;;;0.76;100.00;102371.66;5016089;28;20512;-88
2023/01/26 10:05:52;;;;;;;45.35;12.13;;;;;;;0.77;100.00;102376.88;5016737;28;20488;-90
2023/01/26 10:11:26;;;;;;;54.58;13.48;;;;;;;0.77;100.00;102363.53;5024198;28;20041;-93
2023/01/26 10:14:06;;;;;;;54.47;13.25;;;;;;;0.80;100.00;102360.63;5016235;28;20037;-90
2023/01/26 10:16:37;;;;;;;59.07;15.00;;;;;;;0.87;100.00;102364.53;5016192;28;20087;-90
2023/01/26 10:19:11;;;;;;;49.58;14.02;;;;;;;0.93;100.00;102357.03;5000875;28;20034;-89
2023/01/26 10:21:48;;;;;;;50.63;13.88;;;;;;;1.00;100.00;102364.44;5017134;28;20029;-90
2023/01/26 10:24:28;;;;;;;56.10;14.15;;;;;;;1.10;100.00;102353.09;5034513;28;20053;-90
2023/01/26 10:27:09;;;;;;;;;;;;;;;;;;;;;
2023/01/26 10:29:34;;;;;;;52.30;14.10;;;;;;;1.19;100.00;102355.91;5035002;28;20442;-89
2023/01/26 10:32:11;;;;;;;58.05;14.32;;;;;;;1.22;100.00;102365.50;5015614;28;20116;-88
2023/01/26 10:34:43;;;;;;;59.30;13.88;;;;;;;1.26;100.00;102360.81;5016298;28;20122;-89
2023/01/26 10:37:31;;;;;;;62.15;14.30;;;;;;;1.23;100.00;102357.38;5015892;28;20036;-90
2023/01/26 10:40:06;;;;;;;59.42;14.52;;;;;;;1.26;100.00;102364.31;5000313;28;20377;-88
2023/01/26 10:42:33;;;;;;;53.83;13.27;;;;;;;1.32;100.00;102366.53;5016222;28;20079;-88
2023/01/26 10:45:01;;;;;;;61.10;15.77;;;;;;;1.35;100.00;102374.31;5017357;28;20025;-88
2023/01/26 10:47:33;;;;;;;59.23;16.43;;;;;;;1.37;100.00;102367.03;5018240;28;20032;-89
2023/01/26 10:50:40;;;;;;;61.20;16.02;;;;;;;1.49;100.00;102365.25;5018053;28;20294;-88
2023/01/26 10:53:36;;;;;;;62.00;16.63;;;;;;;1.50;100.00;102363.41;5016548;28;20075;-88
2023/01/26 10:56:05;;;;;;;61.75;14.82;;;;;;;1.56;100.00;102363.75;5015607;28;20040;-89
2023/01/26 10:58:40;;;;;;;58.17;15.52;;;;;;;1.71;100.00;102368.91;5015275;28;20502;-88
2023/01/26 11:01:11;;;;;;;68.93;16.38;;;;;;;1.75;100.00;102368.53;5015391;28;20048;-88
2023/01/26 11:03:44;;;;;;;57.05;16.63;;;;;;;1.86;100.00;102369.53;5033965;28;20104;-90
2023/01/26 11:06:17;;;;;;;61.80;15.40;;;;;;;1.96;100.00;102357.13;5015905;28;20032;-90
2023/01/26 11:08:45;;;;;;;52.97;14.82;;;;;;;2.17;100.00;102356.38;5015872;28;20025;-89
2023/01/26 11:11:35;;;;;;;74.00;16.38;;;;;;;2.41;100.00;102359.75;5015691;28;20026;-90
2023/01/26 11:14:35;;;;;;;62.10;15.15;;;;;;;2.68;100.00;102358.47;5016344;28;20090;-91
2023/01/26 11:17:20;;;;;;;;;;;;;;;;;;;;;
2023/01/26 11:20:11;;;;;;;57.00;13.95;;;;;;;2.85;100.00;102359.78;5035042;28;20117;-90
2023/01/26 11:22:45;;;;;;;58.58;15.02;;;;;;;2.97;100.00;102355.22;5015777;28;20140;-88
2023/01/26 11:25:50;;;;;;;64.47;16.02;;;;;;;3.16;100.00;102363.41;5016368;28;20045;-89
2023/01/26 11:28:42;;;;;;;62.70;15.30;;;;;;;3.20;100.00;102366.69;5019287;28;20532;-88
2023/01/26 11:31:31;;;;;;;56.70;13.73;;;;;;;3.31;100.00;102363.94;5008305;28;20064;-88
2023/01/26 11:34:06;;;;;;;60.92;14.52;;;;;;;3.51;100.00;102362.25;5019162;28;20025;-88
2023/01/26 11:36:42;;;;;;;63.95;14.18;;;;;;;3.78;100.00;102366.22;5019092;28;20128;-81
2023/01/26 11:39:36;;;;;;;67.15;15.77;;;;;;;4.11;100.00;102361.53;5019828;28;20087;-88
2023/01/26 11:42:17;;;;;;;66.40;14.65;;;;;;;4.47;100.00;102359.25;5018809;28;20033;-89
2023/01/26 11:45:04;;;;;;;53.50;13.77;;;;;;;4.56;100.00;102352.19;5019340;28;20030;-88
2023/01/26 11:47:42;;;;;;;56.22;14.38;;;;;;;4.66;100.00;102358.44;5036737;28;20036;-88
2023/01/26 11:50:22;;;;;;;61.38;15.07;;;;;;;4.85;100.00;102354.06;5018817;28;20120;-88
2023/01/26 11:52:57;;;;;;;55.17;16.25;;;;;;;5.23;100.00;102347.81;5036954;28;20083;-88
2023/01/26 11:55:34;;;;;;;56.50;15.05;;;;;;;5.41;100.00;102339.88;5019010;28;20034;-88
2023/01/26 11:58:38;;;;;;;60.10;17.45;;;;;;;5.98;100.00;102333.63;5036574;28;20029;-87
2023/01/26 12:01:19;;;;;;;61.20;15.40;;;;;;;6.78;100.00;102327.63;5001209;28;20099;-88
2023/01/26 12:04:03;;;;;;;55.72;16.35;;;;;;;8.69;100.00;102318.56;5018818;28;20035;-88
2023/01/26 12:06:47;;;;;;;48.80;12.05;;;;;;;10.12;100.00;102315.28;5002580;28;20041;-88
2023/01/26 12:09:47;;;;;;;;;;;;;;;;;;;;;
2023/01/26 12:13:00;;;;;;;36.38;10.43;;;;;;;13.64;89.60;102306.97;5036859;28;20396;-88
2023/01/26 12:15:38;;;;;;;33.90;9.75;;;;;;;15.31;77.41;102309.34;5026643;28;20046;-88
2023/01/26 12:18:35;;;;;;;26.58;10.38;;;;;;;15.59;76.23;102303.66;5018088;28;20386;-87
2023/01/26 12:21:08;;;;;;;33.63;10.40;;;;;;;15.28;67.85;102302.41;5018480;28;20048;-88
2023/01/26 12:24:19;;;;;;;33.30;9.85;;;;;;;14.76;74.72;102304.91;5035786;28;20285;-89
2023/01/26 12:27:04;;;;;;;25.77;8.47;;;;;;;13.39;70.47;102304.72;4997118;28;20056;-88
2023/01/26 12:30:07;;;;;;;24.52;7.85;;;;;;;12.53;79.24;102300.13;5004427;28;20116;-88
2023/01/26 12:32:45;;;;;;;;;;;;;;;;;;;;;
2023/01/26 12:35:23;;;;;;;19.50;5.20;;;;;;;11.38;77.49;102287.94;5037085;28;20040;-88
2023/01/26 12:38:04;;;;;;;28.73;6.75;;;;;;;11.29;78.81;102287.16;5035519;28;20029;-89
2023/01/26 12:40:56;;;;;;;25.93;5.80;;;;;;;11.19;81.30;102281.16;5017663;28;20060;-88
2023/01/26 12:43:44;;;;;;;20.77;4.78;;;;;;;11.75;80.17;102276.16;5017357;28;20041;-88
2023/01/26 12:46:21;;;;;;;;;;;;;;;;;;;;;
2023/01/26 12:49:01;;;;;;;21.92;5.35;;;;;;;11.62;77.14;102266.94;5020064;28;20051;-87
2023/01/26 12:51:44;;;;;;;34.67;7.00;;;;;;;11.17;79.09;102264.19;5018339;28;20034;-88
2023/01/26 12:54:32;;;;;;;26.20;5.20;;;;;;;11.07;78.75;102264.44;5035165;28;20470;-88
2023/01/26 12:57:22;;;;;;;;;;;;;;;;;;;;;